createdAt,value
2018-06-30T00:01:18.101Z,97553.41
2018-06-30T00:03:53.542Z,97551.71
2018-06-30T00:06:26.358Z,97554.09
2018-06-30T00:08:57.353Z,97551.59
2018-06-30T00:11:27.079Z,97556.18
2018-06-30T00:14:04.460Z,97554.16
2018-06-30T00:16:36.023Z,97556.03
2018-06-30T00:19:06.430Z,97554.01
2018-06-30T00:21:37.126Z,97549.27
2018-06-30T00:24:10.300Z,97549.78
2018-06-30T00:26:40.538Z,97548.13
2018-06-30T00:29:12.136Z,97553.70
2018-06-30T00:31:43.366Z,97553.38
2018-06-30T00:34:14.220Z,97548.13
2018-06-30T00:36:44.182Z,97546.95
2018-06-30T00:39:14.052Z,97547.45
2018-06-30T00:41:43.684Z,97550.36
2018-06-30T00:44:13.836Z,97543.27
2018-06-30T00:46:47.290Z,97541.58
2018-06-30T00:49:19.602Z,97538.02
2018-06-30T00:51:52.981Z,97538.70
2018-06-30T00:54:22.626Z,97541.94
2018-06-30T00:56:59.274Z,97542.11
2018-06-30T00:59:28.883Z,97545.34
2018-06-30T01:01:58.817Z,97546.87
2018-06-30T01:04:29.298Z,97548.75
2018-06-30T01:06:59.002Z,97548.97
2018-06-30T01:09:28.630Z,97551.02
2018-06-30T01:11:58.083Z,97554.06
2018-06-30T01:14:27.725Z,97548.30
2018-06-30T01:16:58.339Z,97543.56
2018-06-30T01:19:28.926Z,97541.36
2018-06-30T01:22:01.575Z,97547.48
2018-06-30T01:24:31.180Z,97534.92
2018-06-30T01:27:00.894Z,97539.00
2018-06-30T01:29:30.938Z,97532.94
2018-06-30T01:32:03.634Z,97532.42
2018-06-30T01:34:33.178Z,97526.66
2018-06-30T01:37:03.102Z,97527.69
2018-06-30T01:39:32.600Z,97523.80
2018-06-30T01:42:02.765Z,97523.46
2018-06-30T01:44:33.991Z,97522.61
2018-06-30T01:47:03.667Z,97520.92
2018-06-30T01:49:35.234Z,97529.58
2018-06-30T01:52:06.686Z,97519.75
2018-06-30T01:54:37.278Z,97523.52
2018-06-30T01:57:10.238Z,97523.52
2018-06-30T01:59:40.349Z,97523.87
2018-06-30T02:02:10.378Z,97530.66
2018-06-30T02:04:42.560Z,97525.23
2018-06-30T02:07:18.148Z,97518.81
2018-06-30T02:09:49.116Z,97512.86
2018-06-30T02:12:19.918Z,97515.76
2018-06-30T02:14:50.022Z,97523.91
2018-06-30T02:17:20.004Z,97521.37
2018-06-30T02:19:49.951Z,97512.41
2018-06-30T02:22:19.523Z,97513.95
2018-06-30T02:24:50.728Z,97511.75
2018-06-30T02:27:20.235Z,97502.76
2018-06-30T02:29:49.684Z,97511.41
2018-06-30T02:32:19.854Z,97515.48
2018-06-30T02:34:50.351Z,97513.45
2018-06-30T02:37:20.125Z,97516.86
2018-06-30T02:39:49.680Z,97514.15
2018-06-30T02:42:20.274Z,97517.05
2018-06-30T02:44:50.341Z,97511.62
2018-06-30T02:47:20.853Z,97509.11
2018-06-30T02:49:50.437Z,97515.05
2018-06-30T02:52:21.619Z,97511.49
2018-06-30T02:54:51.308Z,97509.80
2018-06-30T02:57:21.690Z,97514.39
2018-06-30T02:59:51.165Z,97512.36
2018-06-30T03:02:20.712Z,97515.08
2018-06-30T03:04:53.278Z,97514.56
2018-06-30T03:07:25.491Z,97512.54
2018-06-30T03:09:56.503Z,97507.83
2018-06-30T03:12:27.730Z,97507.29
2018-06-30T03:14:57.320Z,97504.78
2018-06-30T03:17:27.304Z,97502.91
2018-06-30T03:19:57.501Z,97503.94
2018-06-30T03:22:27.689Z,97502.77
2018-06-30T03:24:57.080Z,97507.67
2018-06-30T03:27:27.372Z,97505.48
2018-06-30T03:29:56.816Z,97510.56
2018-06-30T03:32:26.301Z,97508.37
2018-06-30T03:34:55.820Z,97505.14
2018-06-30T03:37:25.728Z,97503.45
2018-06-30T03:39:56.463Z,97501.25
2018-06-30T03:42:26.873Z,97503.96
2018-06-30T03:44:56.874Z,97508.37
2018-06-30T03:47:26.416Z,97500.41
2018-06-30T03:49:56.076Z,97501.76
2018-06-30T03:52:25.767Z,97501.76
2018-06-30T03:54:55.492Z,97504.98
2018-06-30T03:57:25.108Z,97498.72
2018-06-30T03:59:54.605Z,97499.56
2018-06-30T04:02:24.183Z,97496.84
2018-06-30T04:04:54.471Z,97497.18
2018-06-30T04:07:24.204Z,97494.13
2018-06-30T04:09:53.854Z,97499.38
2018-06-30T04:12:23.493Z,97496.33
2018-06-30T04:14:52.987Z,97498.53
2018-06-30T04:17:22.565Z,97502.42
2018-06-30T04:19:52.072Z,97500.23
2018-06-30T04:22:22.097Z,97502.42
2018-06-30T04:24:52.340Z,97496.67
2018-06-30T04:27:22.109Z,97496.16
2018-06-30T04:29:51.692Z,97507.34
2018-06-30T04:32:21.375Z,97502.77
2018-06-30T04:34:50.856Z,97503.09
2018-06-30T04:37:21.486Z,97506.31
2018-06-30T04:39:51.314Z,97511.23
2018-06-30T04:42:20.825Z,97511.56
2018-06-30T04:44:51.832Z,97515.97
2018-06-30T04:47:23.202Z,97513.56
2018-06-30T04:49:54.057Z,97516.61
2018-06-30T04:52:23.675Z,97522.37
2018-06-30T04:54:55.159Z,97521.52
2018-06-30T04:57:25.848Z,97523.73
2018-06-30T05:02:32.012Z,97526.93
2018-06-30T05:05:01.561Z,97528.28
2018-06-30T05:07:31.562Z,97532.18
2018-06-30T05:10:01.156Z,97528.56
2018-06-30T05:12:30.669Z,97529.52
2018-06-30T05:15:00.764Z,97530.48
2018-06-30T05:17:32.413Z,97529.30
2018-06-30T05:20:08.837Z,97533.38
2018-06-30T05:22:39.659Z,97524.87
2018-06-30T05:25:10.833Z,97528.23
2018-06-30T05:27:40.593Z,97525.17
2018-06-30T05:30:10.211Z,97530.61
2018-06-30T05:32:40.728Z,97526.23
2018-06-30T05:35:10.230Z,97526.02
2018-06-30T05:37:39.778Z,97519.56
2018-06-30T05:40:09.482Z,97517.70
2018-06-30T05:42:46.152Z,97520.75
2018-06-30T05:45:15.689Z,97522.10
2018-06-30T05:47:45.243Z,97526.84
2018-06-30T05:50:15.333Z,97527.17
2018-06-30T05:52:46.841Z,97526.15
2018-06-30T05:55:17.957Z,97528.86
2018-06-30T05:57:51.376Z,97527.84
2018-06-30T06:00:20.874Z,97524.40
2018-06-30T06:02:51.476Z,97525.58
2018-06-30T06:05:28.024Z,97530.50
2018-06-30T06:07:59.805Z,97523.02
2018-06-30T06:10:29.980Z,97523.02
2018-06-30T06:13:02.769Z,97526.91
2018-06-30T06:15:32.264Z,97520.30
2018-06-30T06:18:02.091Z,97519.27
2018-06-30T06:20:31.878Z,97525.03
2018-06-30T06:23:01.617Z,97522.84
2018-06-30T06:25:31.606Z,97527.23
2018-06-30T06:28:01.375Z,97519.94
2018-06-30T06:30:31.435Z,97525.37
2018-06-30T06:33:02.228Z,97522.11
2018-06-30T06:35:32.524Z,97523.80
2018-06-30T06:38:04.608Z,97523.80
2018-06-30T06:40:35.380Z,97522.77
2018-06-30T06:43:07.811Z,97524.64
2018-06-30T06:45:38.392Z,97529.05
2018-06-30T06:48:08.759Z,97528.72
2018-06-30T06:50:40.248Z,97527.84
2018-06-30T06:53:10.193Z,97525.64
2018-06-30T06:55:40.873Z,97530.05
2018-06-30T06:58:10.594Z,97526.81
2018-06-30T07:00:41.455Z,97526.81
2018-06-30T07:03:21.691Z,97522.56
2018-06-30T07:05:57.665Z,97519.84
2018-06-30T07:08:27.216Z,97513.69
2018-06-30T07:10:57.382Z,97524.01
2018-06-30T07:13:28.103Z,97520.27
2018-06-30T07:15:58.039Z,97518.58
2018-06-30T07:18:27.769Z,97518.75
2018-06-30T07:20:59.037Z,97520.59
2018-06-30T07:23:29.472Z,97518.73
2018-06-30T07:26:03.370Z,97521.44
2018-06-30T07:28:34.719Z,97520.96
2018-06-30T07:31:04.634Z,97522.44
2018-06-30T07:33:35.497Z,97527.17
2018-06-30T07:36:04.935Z,97523.25
2018-06-30T07:38:35.160Z,97514.92
2018-06-30T07:41:09.089Z,97517.75
2018-06-30T07:43:39.210Z,97517.05
2018-06-30T07:46:10.372Z,97516.20
2018-06-30T07:48:40.195Z,97513.83
2018-06-30T07:51:10.389Z,97520.95
2018-06-30T07:53:40.896Z,97517.72
2018-06-30T07:56:10.359Z,97518.23
2018-06-30T07:58:41.772Z,97515.19
2018-06-30T08:01:12.091Z,97513.45
2018-06-30T08:03:41.439Z,97523.63
2018-06-30T08:06:11.942Z,97519.00
2018-06-30T08:08:41.553Z,97519.00
2018-06-30T08:11:11.145Z,97521.17
2018-06-30T08:13:47.315Z,97525.91
2018-06-30T08:16:17.427Z,97522.53
2018-06-30T08:18:47.348Z,97519.63
2018-06-30T08:21:18.256Z,97523.02
2018-06-30T08:23:47.852Z,97526.36
2018-06-30T08:26:19.495Z,97516.33
2018-06-30T08:29:14.794Z,97519.38
2018-06-30T08:31:52.695Z,97524.81
2018-06-30T08:34:35.429Z,97524.30
2018-06-30T08:37:19.605Z,97524.12
2018-06-30T08:40:06.605Z,97520.89
2018-06-30T08:42:37.392Z,97515.27
2018-06-30T08:45:13.129Z,97517.98
2018-06-30T08:47:42.924Z,97518.95
2018-06-30T08:50:12.951Z,97517.73
2018-06-30T08:56:27.834Z,97520.59
2018-06-30T08:58:59.797Z,97515.86
2018-06-30T09:01:29.926Z,97517.41
2018-06-30T09:07:02.517Z,97514.79
2018-06-30T09:09:36.826Z,97517.69
2018-06-30T09:12:15.879Z,97513.28
2018-06-30T09:14:48.596Z,97516.66
2018-06-30T09:17:18.369Z,97519.49
2018-06-30T09:19:50.159Z,97520.85
2018-06-30T09:23:49.783Z,97526.80
2018-06-30T09:26:26.834Z,97521.52
2018-06-30T09:29:01.664Z,97520.11
2018-06-30T09:34:54.828Z,97519.01
2018-06-30T15:47:39.410Z,97377.48
2018-06-30T19:26:39.142Z,97411.55
2018-06-30T21:53:40.573Z,97533.80
2018-06-30T22:09:32.434Z,97536.84
2018-06-30T22:12:21.140Z,97544.88
2018-06-30T22:15:04.631Z,97541.72
2018-06-30T22:30:16.768Z,97541.20
2018-06-30T22:33:10.384Z,97544.58
2018-06-30T22:36:08.652Z,97540.69
2018-06-30T22:39:04.389Z,97536.80
2018-06-30T22:41:52.410Z,97535.16
2018-06-30T22:44:40.309Z,97536.28
2018-06-30T23:26:57.936Z,97550.31
2018-06-30T23:41:30.384Z,97554.00
2018-06-30T23:52:44.253Z,97552.54
2018-06-30T23:55:16.138Z,97546.96
2018-06-30T23:58:07.720Z,97557.51
